Wetterdaten: aktuell Montag, 24.06.2019 23:58
Datum Zeit Temp. A. Temp. 5cm Feuchte A. Luftdruck Regen Wind Richtung Richtung Taupunkt Windchill Windben Empfang
24.06.2019 23:58 19,9 C 19,4 C 79 % 1022,6 hPa 0,0 l/m 8,2 km/h (2 Bft) O-NO 69 16,1 C 19,2 C 9,7 km/h (2 Bft) 97 %
24.06.2019 23:56 20,0 C 19,4 C 79 % 1022,7 hPa 0,0 l/m 10,5 km/h (2 Bft) O-NO 61 16,2 C 18,5 C 14,5 km/h (3 Bft) 100 %
24.06.2019 23:54 20,1 C 19,4 C 79 % 1022,7 hPa 0,0 l/m 12,6 km/h (3 Bft) O-NO 70 16,3 C 18,0 C 16,1 km/h (3 Bft) 94 %
24.06.2019 23:52 20,1 C 19,4 C 78 % 1022,7 hPa 0,0 l/m 11,3 km/h (2 Bft) O-NO 67 16,1 C 18,3 C 14,5 km/h (3 Bft) 93 %
24.06.2019 23:50 20,1 C 19,4 C 78 % 1022,7 hPa 0,0 l/m 14,1 km/h (3 Bft) O-NO 61 16,1 C 17,6 C 17,7 km/h (3 Bft) 98 %
24.06.2019 23:48 20,1 C 19,4 C 78 % 1022,7 hPa 0,0 l/m 13,0 km/h (3 Bft) O-NO 66 16,1 C 17,9 C 17,7 km/h (3 Bft) 98 %
24.06.2019 23:46 20,0 C 19,4 C 79 % 1022,7 hPa 0,0 l/m 14,2 km/h (3 Bft) O-NO 76 16,2 C 17,4 C 19,3 km/h (3 Bft) 98 %
24.06.2019 23:44 19,9 C 19,4 C 79 % 1022,7 hPa 0,0 l/m 13,1 km/h (3 Bft) O-NO 67 16,1 C 17,6 C 16,1 km/h (3 Bft) 95 %
24.06.2019 23:42 19,9 C 19,4 C 79 % 1022,7 hPa 0,0 l/m 13,1 km/h (3 Bft) NO 50 16,1 C 17,6 C 19,3 km/h (3 Bft) 98 %
24.06.2019 23:40 19,8 C 19,4 C 79 % 1022,7 hPa 0,0 l/m 10,8 km/h (2 Bft) O-NO 68 16,0 C 18,2 C 14,5 km/h (3 Bft) 98 %
24.06.2019 23:38 19,8 C 19,4 C 80 % 1022,8 hPa 0,0 l/m 10,6 km/h (2 Bft) O-NO 57 16,2 C 18,2 C 14,5 km/h (3 Bft) 98 %
24.06.2019 23:36 19,7 C 18,9 C 80 % 1022,8 hPa 0,0 l/m 10,4 km/h (2 Bft) O-NO 66 16,1 C 18,2 C 14,5 km/h (3 Bft) 100 %
24.06.2019 23:34 19,8 C 18,9 C 79 % 1022,8 hPa 0,0 l/m 9,0 km/h (2 Bft) NO 55 16,0 C 18,8 C 11,3 km/h (2 Bft) 98 %
24.06.2019 23:32 19,9 C 19,4 C 78 % 1022,7 hPa 0,0 l/m 8,6 km/h (2 Bft) NO 55 15,9 C 19,0 C 11,3 km/h (2 Bft) 98 %
24.06.2019 23:30 19,9 C 19,4 C 78 % 1022,8 hPa 0,0 l/m 9,7 km/h (2 Bft) O-NO 61 15,9 C 18,6 C 12,9 km/h (3 Bft) 98 %
24.06.2019 23:28 20,0 C 19,4 C 78 % 1022,8 hPa 0,0 l/m 10,5 km/h (2 Bft) O-NO 70 16,0 C 18,5 C 14,5 km/h (3 Bft) 100 %
24.06.2019 23:26 19,9 C 19,4 C 78 % 1022,8 hPa 0,0 l/m 11,9 km/h (2 Bft) O-NO 59 15,9 C 17,9 C 14,5 km/h (3 Bft) 98 %
24.06.2019 23:24 19,9 C 19,4 C 78 % 1022,8 hPa 0,0 l/m 11,0 km/h (2 Bft) O-NO 66 15,9 C 18,2 C 12,9 km/h (3 Bft) 100 %
24.06.2019 23:22 19,9 C 19,4 C 78 % 1022,8 hPa 0,0 l/m 9,7 km/h (2 Bft) O-NO 64 15,9 C 18,6 C 14,5 km/h (3 Bft) 100 %
24.06.2019 23:20 19,9 C 19,4 C 78 % 1022,8 hPa 0,0 l/m 8,6 km/h (2 Bft) O-NO 62 15,9 C 19,0 C 14,5 km/h (3 Bft) 97 %
24.06.2019 23:18 20,0 C 19,4 C 78 % 1022,9 hPa 0,0 l/m 7,9 km/h (2 Bft) O-NO 76 16,0 C 19,4 C 11,3 km/h (2 Bft) 98 %
24.06.2019 23:16 20,1 C 19,4 C 77 % 1022,8 hPa 0,0 l/m 8,1 km/h (2 Bft) O-NO 67 15,9 C 19,4 C 12,9 km/h (3 Bft) 100 %
24.06.2019 23:14 20,2 C 19,4 C 76 % 1022,8 hPa 0,0 l/m 7,5 km/h (2 Bft) O-NO 59 15,8 C 19,8 C 8,0 km/h (2 Bft) 98 %
24.06.2019 23:12 20,3 C 19,4 C 76 % 1022,9 hPa 0,0 l/m 8,9 km/h (2 Bft) O-NO 57 15,9 C 19,3 C 12,9 km/h (3 Bft) 98 %
24.06.2019 23:10 20,4 C 19,4 C 76 % 1022,8 hPa 0,0 l/m 8,8 km/h (2 Bft) O-NO 71 16,0 C 19,5 C 12,9 km/h (3 Bft) 100 %
24.06.2019 23:08 20,5 C 20,0 C 75 % 1022,9 hPa 0,0 l/m 8,4 km/h (2 Bft) O-NO 65 15,9 C 19,7 C 9,7 km/h (2 Bft) 98 %
24.06.2019 23:06 20,5 C 20,0 C 75 % 1022,9 hPa 0,0 l/m 9,1 km/h (2 Bft) O-NO 65 15,9 C 19,5 C 12,9 km/h (3 Bft) 100 %
24.06.2019 23:04 20,6 C 20,0 C 74 % 1022,8 hPa 0,0 l/m 9,3 km/h (2 Bft) O-NO 65 15,8 C 19,5 C 12,9 km/h (3 Bft) 98 %
24.06.2019 23:02 20,6 C 20,0 C 74 % 1022,9 hPa 0,0 l/m 10,1 km/h (2 Bft) O-NO 61 15,8 C 19,3 C 12,9 km/h (3 Bft) 100 %
24.06.2019 23:00 20,7 C 20,0 C 75 % 1022,8 hPa 0,0 l/m 9,1 km/h (2 Bft) O-NO 69 16,1 C 19,7 C 12,9 km/h (3 Bft) 100 %
24.06.2019 22:58 20,7 C 20,0 C 74 % 1022,9 hPa 0,0 l/m 12,7 km/h (3 Bft) O-NO 65 15,9 C 18,7 C 16,1 km/h (3 Bft) 98 %
_ Min-Zeit 05:36 04:38 16:54 17:58 - 00:00 - - 05:36 05:36 00:00 08:24
Minimum _ 15,6 C 15,6 C 58 % 1021,5 hPa - 0,0 km/h (0 Bft) - - 15,1 C 15,6 C 0,0 km/h (0 Bft) 86 %
_ Max-Zeit 16:28 12:38 02:06 09:16 09:22 17:40 - - 15:24 15:40 15:44 00:00
Maximum _ 27,6 C 40,6 C 97 % 1023,4 hPa 0,2 l/m 24,1 km/h
O-NO (4 Bft)
- - 20,2 C 27,0 C 30,6 km/h
O (5 Bft)
100 %
Durchschnitt _ 21,9 C 22,8 C 78 % 1022,4 hPa #0,2 l/m 8,3 km/h (2 Bft) O-NO - 17,6 C 21,2 C 12,0 km/h (2 Bft) 98 %